sensor_id;sensor_type;location;lat;lon;timestamp;P1;durP1;ratioP1;P2;durP2;ratioP2
20322;SDS011;10319;52.206;20.996;2024-02-14T00:01:44;16.17;;;4.23;;
20322;SDS011;10319;52.206;20.996;2024-02-14T00:04:09;17.63;;;4.50;;
20322;SDS011;10319;52.206;20.996;2024-02-14T00:06:35;17.53;;;4.30;;
20322;SDS011;10319;52.206;20.996;2024-02-14T00:09:01;15.30;;;3.43;;
20322;SDS011;10319;52.206;20.996;2024-02-14T00:11:27;16.20;;;3.90;;
20322;SDS011;10319;52.206;20.996;2024-02-14T00:13:52;16.13;;;3.50;;
20322;SDS011;10319;52.206;20.996;2024-02-14T00:16:17;16.57;;;4.00;;
20322;SDS011;10319;52.206;20.996;2024-02-14T00:18:43;16.13;;;4.00;;
20322;SDS011;10319;52.206;20.996;2024-02-14T00:21:08;18.80;;;4.50;;
20322;SDS011;10319;52.206;20.996;2024-02-14T00:23:33;17.57;;;4.37;;
20322;SDS011;10319;52.206;20.996;2024-02-14T00:25:58;15.17;;;3.63;;
20322;SDS011;10319;52.206;20.996;2024-02-14T00:28:24;13.03;;;3.50;;
20322;SDS011;10319;52.206;20.996;2024-02-14T00:30:51;15.73;;;3.80;;
20322;SDS011;10319;52.206;20.996;2024-02-14T00:33:17;16.80;;;3.83;;
20322;SDS011;10319;52.206;20.996;2024-02-14T00:35:43;17.87;;;4.87;;
20322;SDS011;10319;52.206;20.996;2024-02-14T00:38:09;17.27;;;5.00;;
20322;SDS011;10319;52.206;20.996;2024-02-14T00:40:34;19.90;;;4.87;;
20322;SDS011;10319;52.206;20.996;2024-02-14T00:43:00;17.87;;;4.80;;
20322;SDS011;10319;52.206;20.996;2024-02-14T00:45:25;13.87;;;3.67;;
20322;SDS011;10319;52.206;20.996;2024-02-14T00:47:50;15.13;;;3.83;;
20322;SDS011;10319;52.206;20.996;2024-02-14T00:50:15;16.80;;;4.33;;
20322;SDS011;10319;52.206;20.996;2024-02-14T00:52:41;19.97;;;5.10;;
20322;SDS011;10319;52.206;20.996;2024-02-14T00:55:06;14.43;;;3.57;;
20322;SDS011;10319;52.206;20.996;2024-02-14T00:57:32;17.13;;;4.27;;
20322;SDS011;10319;52.206;20.996;2024-02-14T00:59:57;15.63;;;4.30;;
20322;SDS011;10319;52.206;20.996;2024-02-14T01:02:22;15.80;;;3.53;;
20322;SDS011;10319;52.206;20.996;2024-02-14T01:04:47;17.13;;;4.57;;
20322;SDS011;10319;52.206;20.996;2024-02-14T01:07:13;19.33;;;5.23;;
20322;SDS011;10319;52.206;20.996;2024-02-14T01:09:38;17.67;;;4.73;;
20322;SDS011;10319;52.206;20.996;2024-02-14T01:12:03;20.20;;;5.13;;
20322;SDS011;10319;52.206;20.996;2024-02-14T01:14:29;17.97;;;4.70;;
20322;SDS011;10319;52.206;20.996;2024-02-14T01:16:55;20.17;;;5.63;;
20322;SDS011;10319;52.206;20.996;2024-02-14T01:19:21;21.17;;;5.57;;
20322;SDS011;10319;52.206;20.996;2024-02-14T01:21:48;17.07;;;5.33;;
20322;SDS011;10319;52.206;20.996;2024-02-14T01:24:14;19.47;;;5.27;;
20322;SDS011;10319;52.206;20.996;2024-02-14T01:26:39;19.73;;;5.50;;
20322;SDS011;10319;52.206;20.996;2024-02-14T01:29:05;16.87;;;4.77;;
20322;SDS011;10319;52.206;20.996;2024-02-14T01:31:31;18.80;;;5.10;;
20322;SDS011;10319;52.206;20.996;2024-02-14T01:33:56;16.20;;;4.83;;
20322;SDS011;10319;52.206;20.996;2024-02-14T01:36:22;18.97;;;5.43;;
20322;SDS011;10319;52.206;20.996;2024-02-14T01:38:48;17.70;;;4.90;;
20322;SDS011;10319;52.206;20.996;2024-02-14T01:41:13;17.80;;;4.80;;
20322;SDS011;10319;52.206;20.996;2024-02-14T01:43:38;15.77;;;4.03;;
20322;SDS011;10319;52.206;20.996;2024-02-14T01:46:07;16.93;;;4.40;;
20322;SDS011;10319;52.206;20.996;2024-02-14T01:48:35;17.97;;;4.80;;
20322;SDS011;10319;52.206;20.996;2024-02-14T01:51:01;18.47;;;5.37;;
20322;SDS011;10319;52.206;20.996;2024-02-14T01:53:27;19.50;;;5.70;;
20322;SDS011;10319;52.206;20.996;2024-02-14T01:55:55;17.97;;;5.07;;
20322;SDS011;10319;52.206;20.996;2024-02-14T01:58:20;18.53;;;5.03;;
20322;SDS011;10319;52.206;20.996;2024-02-14T02:00:46;16.93;;;4.87;;
20322;SDS011;10319;52.206;20.996;2024-02-14T02:03:11;18.27;;;5.30;;
20322;SDS011;10319;52.206;20.996;2024-02-14T02:05:36;18.23;;;5.13;;
20322;SDS011;10319;52.206;20.996;2024-02-14T02:08:01;17.53;;;5.40;;
20322;SDS011;10319;52.206;20.996;2024-02-14T02:10:27;19.27;;;5.30;;
20322;SDS011;10319;52.206;20.996;2024-02-14T02:12:57;18.43;;;5.17;;
20322;SDS011;10319;52.206;20.996;2024-02-14T02:15:23;18.10;;;5.20;;
20322;SDS011;10319;52.206;20.996;2024-02-14T02:17:48;15.00;;;4.30;;
20322;SDS011;10319;52.206;20.996;2024-02-14T02:20:17;16.43;;;4.73;;
20322;SDS011;10319;52.206;20.996;2024-02-14T02:22:45;17.63;;;5.00;;
20322;SDS011;10319;52.206;20.996;2024-02-14T02:25:12;17.63;;;4.83;;
20322;SDS011;10319;52.206;20.996;2024-02-14T02:27:37;16.87;;;4.73;;
20322;SDS011;10319;52.206;20.996;2024-02-14T02:30:03;19.33;;;4.90;;
20322;SDS011;10319;52.206;20.996;2024-02-14T02:32:29;17.40;;;4.67;;
20322;SDS011;10319;52.206;20.996;2024-02-14T02:34:55;20.17;;;5.63;;
20322;SDS011;10319;52.206;20.996;2024-02-14T02:37:21;16.73;;;4.73;;
20322;SDS011;10319;52.206;20.996;2024-02-14T02:39:46;17.37;;;5.03;;
20322;SDS011;10319;52.206;20.996;2024-02-14T02:42:12;17.37;;;5.50;;
20322;SDS011;10319;52.206;20.996;2024-02-14T02:44:38;18.43;;;5.10;;
20322;SDS011;10319;52.206;20.996;2024-02-14T02:47:04;17.83;;;5.03;;
20322;SDS011;10319;52.206;20.996;2024-02-14T02:49:29;14.83;;;4.10;;
20322;SDS011;10319;52.206;20.996;2024-02-14T02:51:54;13.37;;;3.13;;
20322;SDS011;10319;52.206;20.996;2024-02-14T02:54:20;12.13;;;3.30;;
20322;SDS011;10319;52.206;20.996;2024-02-14T02:56:47;13.17;;;3.40;;
20322;SDS011;10319;52.206;20.996;2024-02-14T02:59:12;15.03;;;3.77;;
20322;SDS011;10319;52.206;20.996;2024-02-14T03:01:38;14.53;;;3.60;;
20322;SDS011;10319;52.206;20.996;2024-02-14T03:04:05;14.33;;;3.47;;
20322;SDS011;10319;52.206;20.996;2024-02-14T03:06:30;13.73;;;3.40;;
20322;SDS011;10319;52.206;20.996;2024-02-14T03:08:56;10.17;;;2.57;;
20322;SDS011;10319;52.206;20.996;2024-02-14T03:11:22;18.07;;;5.27;;
20322;SDS011;10319;52.206;20.996;2024-02-14T03:13:47;16.87;;;4.93;;
20322;SDS011;10319;52.206;20.996;2024-02-14T03:16:14;15.10;;;4.57;;
20322;SDS011;10319;52.206;20.996;2024-02-14T03:18:39;20.63;;;6.37;;
20322;SDS011;10319;52.206;20.996;2024-02-14T03:21:05;19.97;;;6.43;;
20322;SDS011;10319;52.206;20.996;2024-02-14T03:23:31;18.83;;;5.97;;
20322;SDS011;10319;52.206;20.996;2024-02-14T03:25:56;19.03;;;6.27;;
20322;SDS011;10319;52.206;20.996;2024-02-14T03:28:22;21.43;;;6.53;;
20322;SDS011;10319;52.206;20.996;2024-02-14T03:30:47;19.70;;;6.33;;
20322;SDS011;10319;52.206;20.996;2024-02-14T03:33:12;20.50;;;6.70;;
20322;SDS011;10319;52.206;20.996;2024-02-14T03:35:38;18.80;;;5.43;;
20322;SDS011;10319;52.206;20.996;2024-02-14T03:38:03;21.57;;;6.33;;
20322;SDS011;10319;52.206;20.996;2024-02-14T03:40:29;20.07;;;6.67;;
20322;SDS011;10319;52.206;20.996;2024-02-14T03:42:55;20.43;;;5.93;;
20322;SDS011;10319;52.206;20.996;2024-02-14T03:45:20;18.90;;;6.23;;
20322;SDS011;10319;52.206;20.996;2024-02-14T03:47:46;17.67;;;6.00;;
20322;SDS011;10319;52.206;20.996;2024-02-14T03:50:11;21.37;;;6.57;;
20322;SDS011;10319;52.206;20.996;2024-02-14T03:52:36;18.90;;;5.97;;
20322;SDS011;10319;52.206;20.996;2024-02-14T03:55:02;18.90;;;5.43;;
20322;SDS011;10319;52.206;20.996;2024-02-14T03:57:27;20.77;;;6.37;;
20322;SDS011;10319;52.206;20.996;2024-02-14T03:59:57;19.50;;;6.00;;
20322;SDS011;10319;52.206;20.996;2024-02-14T04:02:22;17.83;;;5.60;;
20322;SDS011;10319;52.206;20.996;2024-02-14T04:04:51;17.57;;;5.63;;
20322;SDS011;10319;52.206;20.996;2024-02-14T04:07:16;19.00;;;5.77;;
20322;SDS011;10319;52.206;20.996;2024-02-14T04:09:41;22.33;;;6.50;;
20322;SDS011;10319;52.206;20.996;2024-02-14T04:12:06;18.30;;;6.10;;
20322;SDS011;10319;52.206;20.996;2024-02-14T04:14:32;23.57;;;7.80;;
20322;SDS011;10319;52.206;20.996;2024-02-14T04:16:57;21.00;;;7.30;;
20322;SDS011;10319;52.206;20.996;2024-02-14T04:19:22;22.53;;;6.67;;
20322;SDS011;10319;52.206;20.996;2024-02-14T04:21:48;20.57;;;7.47;;
20322;SDS011;10319;52.206;20.996;2024-02-14T04:24:13;22.10;;;7.60;;
20322;SDS011;10319;52.206;20.996;2024-02-14T04:26:38;24.17;;;7.53;;
20322;SDS011;10319;52.206;20.996;2024-02-14T04:29:04;23.00;;;7.93;;
20322;SDS011;10319;52.206;20.996;2024-02-14T04:31:29;21.23;;;6.67;;
20322;SDS011;10319;52.206;20.996;2024-02-14T04:33:55;21.67;;;6.47;;
20322;SDS011;10319;52.206;20.996;2024-02-14T04:36:20;21.90;;;6.90;;
20322;SDS011;10319;52.206;20.996;2024-02-14T04:38:47;21.90;;;7.20;;
20322;SDS011;10319;52.206;20.996;2024-02-14T04:41:13;22.93;;;7.07;;
20322;SDS011;10319;52.206;20.996;2024-02-14T04:43:39;19.80;;;6.07;;
20322;SDS011;10319;52.206;20.996;2024-02-14T04:46:04;19.83;;;6.47;;
20322;SDS011;10319;52.206;20.996;2024-02-14T04:48:35;19.90;;;6.93;;
20322;SDS011;10319;52.206;20.996;2024-02-14T04:51:00;21.47;;;7.50;;
20322;SDS011;10319;52.206;20.996;2024-02-14T04:53:26;19.27;;;6.40;;
20322;SDS011;10319;52.206;20.996;2024-02-14T04:55:51;20.90;;;6.63;;
20322;SDS011;10319;52.206;20.996;2024-02-14T04:58:16;22.43;;;6.87;;
20322;SDS011;10319;52.206;20.996;2024-02-14T05:00:42;21.83;;;7.10;;
20322;SDS011;10319;52.206;20.996;2024-02-14T05:03:07;20.33;;;6.80;;
20322;SDS011;10319;52.206;20.996;2024-02-14T05:05:32;22.10;;;6.80;;
20322;SDS011;10319;52.206;20.996;2024-02-14T05:07:58;19.47;;;6.30;;
20322;SDS011;10319;52.206;20.996;2024-02-14T05:10:24;18.27;;;5.70;;
20322;SDS011;10319;52.206;20.996;2024-02-14T05:12:49;18.13;;;5.30;;
20322;SDS011;10319;52.206;20.996;2024-02-14T05:15:15;17.73;;;5.17;;
20322;SDS011;10319;52.206;20.996;2024-02-14T05:17:41;15.60;;;4.67;;
20322;SDS011;10319;52.206;20.996;2024-02-14T05:20:07;14.73;;;3.90;;
20322;SDS011;10319;52.206;20.996;2024-02-14T05:22:35;16.80;;;4.80;;
20322;SDS011;10319;52.206;20.996;2024-02-14T05:25:01;19.37;;;6.27;;
20322;SDS011;10319;52.206;20.996;2024-02-14T05:27:27;20.23;;;6.13;;
20322;SDS011;10319;52.206;20.996;2024-02-14T05:29:52;17.90;;;5.40;;
20322;SDS011;10319;52.206;20.996;2024-02-14T05:32:17;15.90;;;4.80;;
20322;SDS011;10319;52.206;20.996;2024-02-14T05:34:42;17.37;;;5.23;;
20322;SDS011;10319;52.206;20.996;2024-02-14T05:37:08;18.77;;;6.03;;
20322;SDS011;10319;52.206;20.996;2024-02-14T05:39:33;18.97;;;6.10;;
20322;SDS011;10319;52.206;20.996;2024-02-14T05:41:59;18.00;;;5.97;;
20322;SDS011;10319;52.206;20.996;2024-02-14T05:44:24;18.33;;;5.60;;
20322;SDS011;10319;52.206;20.996;2024-02-14T05:46:51;17.87;;;5.40;;
20322;SDS011;10319;52.206;20.996;2024-02-14T05:49:16;16.57;;;4.60;;
20322;SDS011;10319;52.206;20.996;2024-02-14T05:51:42;19.90;;;5.80;;
20322;SDS011;10319;52.206;20.996;2024-02-14T05:54:07;20.53;;;6.20;;
20322;SDS011;10319;52.206;20.996;2024-02-14T05:56:32;24.53;;;7.43;;
20322;SDS011;10319;52.206;20.996;2024-02-14T05:58:57;23.60;;;7.30;;
20322;SDS011;10319;52.206;20.996;2024-02-14T06:01:23;20.87;;;6.93;;
20322;SDS011;10319;52.206;20.996;2024-02-14T06:03:48;19.07;;;5.90;;
20322;SDS011;10319;52.206;20.996;2024-02-14T06:06:13;21.17;;;6.40;;
20322;SDS011;10319;52.206;20.996;2024-02-14T06:08:38;21.43;;;6.23;;
20322;SDS011;10319;52.206;20.996;2024-02-14T06:11:04;18.10;;;6.00;;
20322;SDS011;10319;52.206;20.996;2024-02-14T06:13:29;18.63;;;5.53;;
20322;SDS011;10319;52.206;20.996;2024-02-14T06:15:54;20.77;;;6.37;;
20322;SDS011;10319;52.206;20.996;2024-02-14T06:18:19;23.13;;;7.37;;
20322;SDS011;10319;52.206;20.996;2024-02-14T06:20:45;20.63;;;7.03;;
20322;SDS011;10319;52.206;20.996;2024-02-14T06:23:11;19.37;;;6.50;;
20322;SDS011;10319;52.206;20.996;2024-02-14T06:25:37;20.93;;;6.67;;
20322;SDS011;10319;52.206;20.996;2024-02-14T06:28:02;20.67;;;6.10;;
20322;SDS011;10319;52.206;20.996;2024-02-14T06:30:27;18.67;;;6.20;;
20322;SDS011;10319;52.206;20.996;2024-02-14T06:32:52;21.53;;;6.73;;
20322;SDS011;10319;52.206;20.996;2024-02-14T06:35:18;17.67;;;5.87;;
20322;SDS011;10319;52.206;20.996;2024-02-14T06:37:44;17.70;;;5.03;;
20322;SDS011;10319;52.206;20.996;2024-02-14T06:40:09;18.07;;;5.00;;
20322;SDS011;10319;52.206;20.996;2024-02-14T06:42:35;16.17;;;4.57;;
20322;SDS011;10319;52.206;20.996;2024-02-14T06:45:00;17.33;;;5.17;;
20322;SDS011;10319;52.206;20.996;2024-02-14T06:47:26;17.77;;;5.30;;
20322;SDS011;10319;52.206;20.996;2024-02-14T06:49:54;17.03;;;5.13;;
20322;SDS011;10319;52.206;20.996;2024-02-14T06:52:20;18.40;;;5.30;;
20322;SDS011;10319;52.206;20.996;2024-02-14T06:54:45;18.67;;;5.73;;
20322;SDS011;10319;52.206;20.996;2024-02-14T06:57:10;19.13;;;5.70;;
20322;SDS011;10319;52.206;20.996;2024-02-14T06:59:36;18.63;;;6.07;;
20322;SDS011;10319;52.206;20.996;2024-02-14T07:02:02;19.03;;;5.90;;
20322;SDS011;10319;52.206;20.996;2024-02-14T07:04:28;18.60;;;6.10;;
20322;SDS011;10319;52.206;20.996;2024-02-14T07:06:53;17.80;;;5.77;;
20322;SDS011;10319;52.206;20.996;2024-02-14T07:09:19;24.67;;;7.20;;
20322;SDS011;10319;52.206;20.996;2024-02-14T07:11:44;20.23;;;6.20;;
20322;SDS011;10319;52.206;20.996;2024-02-14T07:14:10;19.60;;;5.67;;
20322;SDS011;10319;52.206;20.996;2024-02-14T07:16:36;19.40;;;5.43;;
20322;SDS011;10319;52.206;20.996;2024-02-14T07:19:01;19.63;;;5.57;;
20322;SDS011;10319;52.206;20.996;2024-02-14T07:21:27;15.60;;;4.60;;
20322;SDS011;10319;52.206;20.996;2024-02-14T07:23:52;22.57;;;6.40;;
20322;SDS011;10319;52.206;20.996;2024-02-14T07:26:18;18.23;;;6.30;;
20322;SDS011;10319;52.206;20.996;2024-02-14T07:28:43;16.67;;;5.53;;
20322;SDS011;10319;52.206;20.996;2024-02-14T07:31:09;17.90;;;5.20;;
20322;SDS011;10319;52.206;20.996;2024-02-14T07:33:34;20.93;;;6.30;;
20322;SDS011;10319;52.206;20.996;2024-02-14T07:36:00;17.50;;;5.80;;
20322;SDS011;10319;52.206;20.996;2024-02-14T07:38:25;19.93;;;5.77;;
20322;SDS011;10319;52.206;20.996;2024-02-14T07:40:51;17.93;;;5.47;;
20322;SDS011;10319;52.206;20.996;2024-02-14T07:43:17;20.20;;;6.63;;
20322;SDS011;10319;52.206;20.996;2024-02-14T07:45:42;19.47;;;6.77;;
20322;SDS011;10319;52.206;20.996;2024-02-14T07:48:07;20.13;;;6.80;;
20322;SDS011;10319;52.206;20.996;2024-02-14T07:50:33;20.20;;;6.93;;
20322;SDS011;10319;52.206;20.996;2024-02-14T07:52:58;21.27;;;7.17;;
20322;SDS011;10319;52.206;20.996;2024-02-14T07:55:24;22.27;;;7.20;;
20322;SDS011;10319;52.206;20.996;2024-02-14T07:57:49;21.47;;;6.53;;
20322;SDS011;10319;52.206;20.996;2024-02-14T08:00:14;20.03;;;6.37;;
20322;SDS011;10319;52.206;20.996;2024-02-14T08:02:47;19.70;;;6.40;;
20322;SDS011;10319;52.206;20.996;2024-02-14T08:05:12;21.60;;;6.67;;
20322;SDS011;10319;52.206;20.996;2024-02-14T08:07:37;21.20;;;7.50;;
20322;SDS011;10319;52.206;20.996;2024-02-14T08:10:03;23.27;;;7.33;;
20322;SDS011;10319;52.206;20.996;2024-02-14T08:12:29;20.73;;;7.00;;
20322;SDS011;10319;52.206;20.996;2024-02-14T08:14:55;20.20;;;6.63;;
20322;SDS011;10319;52.206;20.996;2024-02-14T08:17:20;16.90;;;5.70;;
20322;SDS011;10319;52.206;20.996;2024-02-14T08:19:46;20.63;;;6.67;;
20322;SDS011;10319;52.206;20.996;2024-02-14T08:22:11;20.90;;;6.30;;
20322;SDS011;10319;52.206;20.996;2024-02-14T08:24:37;18.33;;;6.07;;
20322;SDS011;10319;52.206;20.996;2024-02-14T08:27:02;23.37;;;7.23;;
20322;SDS011;10319;52.206;20.996;2024-02-14T08:29:31;23.53;;;7.70;;
20322;SDS011;10319;52.206;20.996;2024-02-14T08:31:56;18.77;;;6.23;;
20322;SDS011;10319;52.206;20.996;2024-02-14T08:34:21;22.50;;;6.47;;
20322;SDS011;10319;52.206;20.996;2024-02-14T08:36:47;20.60;;;6.20;;
20322;SDS011;10319;52.206;20.996;2024-02-14T08:39:12;17.33;;;5.33;;
20322;SDS011;10319;52.206;20.996;2024-02-14T08:41:38;16.40;;;5.53;;
20322;SDS011;10319;52.206;20.996;2024-02-14T08:44:03;20.03;;;6.57;;
20322;SDS011;10319;52.206;20.996;2024-02-14T08:46:30;18.13;;;6.20;;
20322;SDS011;10319;52.206;20.996;2024-02-14T08:48:55;18.13;;;5.73;;
20322;SDS011;10319;52.206;20.996;2024-02-14T08:51:20;18.70;;;6.30;;
20322;SDS011;10319;52.206;20.996;2024-02-14T08:53:46;21.70;;;6.27;;
20322;SDS011;10319;52.206;20.996;2024-02-14T08:56:11;21.50;;;6.17;;
20322;SDS011;10319;52.206;20.996;2024-02-14T08:58:37;21.90;;;6.07;;
20322;SDS011;10319;52.206;20.996;2024-02-14T09:01:02;21.17;;;6.00;;
20322;SDS011;10319;52.206;20.996;2024-02-14T09:03:27;20.00;;;6.17;;
20322;SDS011;10319;52.206;20.996;2024-02-14T09:05:52;16.10;;;4.87;;
20322;SDS011;10319;52.206;20.996;2024-02-14T09:08:21;16.83;;;4.83;;
20322;SDS011;10319;52.206;20.996;2024-02-14T09:10:47;18.43;;;5.17;;
20322;SDS011;10319;52.206;20.996;2024-02-14T09:13:13;18.67;;;5.37;;
20322;SDS011;10319;52.206;20.996;2024-02-14T09:15:38;15.30;;;4.23;;
20322;SDS011;10319;52.206;20.996;2024-02-14T09:18:04;16.43;;;4.20;;
20322;SDS011;10319;52.206;20.996;2024-02-14T09:23:32;15.77;;;3.87;;
20322;SDS011;10319;52.206;20.996;2024-02-14T09:25:58;16.80;;;4.50;;
20322;SDS011;10319;52.206;20.996;2024-02-14T09:28:23;13.40;;;3.53;;
20322;SDS011;10319;52.206;20.996;2024-02-14T09:30:50;16.83;;;3.67;;
20322;SDS011;10319;52.206;20.996;2024-02-14T09:33:15;13.00;;;3.37;;
20322;SDS011;10319;52.206;20.996;2024-02-14T09:35:41;17.23;;;4.07;;
20322;SDS011;10319;52.206;20.996;2024-02-14T09:38:10;13.90;;;3.30;;
20322;SDS011;10319;52.206;20.996;2024-02-14T09:40:35;15.00;;;3.70;;
20322;SDS011;10319;52.206;20.996;2024-02-14T09:43:01;15.20;;;3.40;;
20322;SDS011;10319;52.206;20.996;2024-02-14T09:45:28;15.83;;;3.30;;
20322;SDS011;10319;52.206;20.996;2024-02-14T09:47:55;13.43;;;3.00;;
20322;SDS011;10319;52.206;20.996;2024-02-14T09:50:21;16.27;;;3.47;;
20322;SDS011;10319;52.206;20.996;2024-02-14T09:52:50;15.97;;;3.60;;
20322;SDS011;10319;52.206;20.996;2024-02-14T09:55:15;11.77;;;2.47;;
20322;SDS011;10319;52.206;20.996;2024-02-14T09:57:41;12.20;;;2.83;;
20322;SDS011;10319;52.206;20.996;2024-02-14T10:00:07;16.27;;;3.10;;
20322;SDS011;10319;52.206;20.996;2024-02-14T10:02:34;13.50;;;2.87;;
20322;SDS011;10319;52.206;20.996;2024-02-14T10:05:00;12.40;;;2.57;;
20322;SDS011;10319;52.206;20.996;2024-02-14T10:07:25;16.93;;;3.17;;
20322;SDS011;10319;52.206;20.996;2024-02-14T10:09:51;12.70;;;2.70;;
20322;SDS011;10319;52.206;20.996;2024-02-14T10:12:18;10.77;;;2.30;;
20322;SDS011;10319;52.206;20.996;2024-02-14T10:14:44;9.07;;;2.10;;
20322;SDS011;10319;52.206;20.996;2024-02-14T10:17:16;14.37;;;2.63;;
20322;SDS011;10319;52.206;20.996;2024-02-14T10:19:41;13.53;;;2.80;;
20322;SDS011;10319;52.206;20.996;2024-02-14T10:22:07;9.57;;;2.20;;
20322;SDS011;10319;52.206;20.996;2024-02-14T10:24:32;12.50;;;2.50;;
20322;SDS011;10319;52.206;20.996;2024-02-14T10:27:01;12.17;;;2.00;;
20322;SDS011;10319;52.206;20.996;2024-02-14T10:29:27;9.47;;;1.73;;
20322;SDS011;10319;52.206;20.996;2024-02-14T10:31:53;5.60;;;1.37;;
20322;SDS011;10319;52.206;20.996;2024-02-14T10:34:18;6.03;;;1.37;;
20322;SDS011;10319;52.206;20.996;2024-02-14T10:36:45;8.97;;;1.43;;
20322;SDS011;10319;52.206;20.996;2024-02-14T10:39:13;7.63;;;1.40;;
20322;SDS011;10319;52.206;20.996;2024-02-14T10:41:40;6.20;;;1.30;;
20322;SDS011;10319;52.206;20.996;2024-02-14T10:44:06;7.10;;;1.10;;
20322;SDS011;10319;52.206;20.996;2024-02-14T10:46:31;5.63;;;1.03;;
20322;SDS011;10319;52.206;20.996;2024-02-14T10:48:58;12.73;;;2.00;;
20322;SDS011;10319;52.206;20.996;2024-02-14T10:51:28;5.60;;;1.30;;
20322;SDS011;10319;52.206;20.996;2024-02-14T10:53:55;8.03;;;1.40;;
20322;SDS011;10319;52.206;20.996;2024-02-14T10:56:21;6.30;;;1.50;;
20322;SDS011;10319;52.206;20.996;2024-02-14T10:58:48;8.10;;;1.50;;
20322;SDS011;10319;52.206;20.996;2024-02-14T11:01:14;15.27;;;2.40;;
20322;SDS011;10319;52.206;20.996;2024-02-14T11:03:41;6.70;;;1.50;;
20322;SDS011;10319;52.206;20.996;2024-02-14T11:06:07;6.53;;;1.33;;
20322;SDS011;10319;52.206;20.996;2024-02-14T11:08:32;8.93;;;1.50;;
20322;SDS011;10319;52.206;20.996;2024-02-14T11:10:59;8.80;;;1.40;;
20322;SDS011;10319;52.206;20.996;2024-02-14T11:19:31;5.50;;;1.20;;
20322;SDS011;10319;52.206;20.996;2024-02-14T11:22:22;6.83;;;1.40;;
20322;SDS011;10319;52.206;20.996;2024-02-14T11:24:47;5.67;;;1.20;;
20322;SDS011;10319;52.206;20.996;2024-02-14T11:27:12;7.33;;;1.50;;
20322;SDS011;10319;52.206;20.996;2024-02-14T11:29:50;6.43;;;1.00;;
20322;SDS011;10319;52.206;20.996;2024-02-14T11:32:15;12.17;;;1.90;;
20322;SDS011;10319;52.206;20.996;2024-02-14T11:34:43;6.53;;;1.23;;
20322;SDS011;10319;52.206;20.996;2024-02-14T11:37:09;5.87;;;1.40;;
20322;SDS011;10319;52.206;20.996;2024-02-14T11:39:34;6.80;;;1.40;;
20322;SDS011;10319;52.206;20.996;2024-02-14T11:42:00;8.50;;;1.37;;
20322;SDS011;10319;52.206;20.996;2024-02-14T11:44:27;7.00;;;1.40;;
20322;SDS011;10319;52.206;20.996;2024-02-14T11:46:52;5.73;;;1.20;;
20322;SDS011;10319;52.206;20.996;2024-02-14T11:49:18;6.30;;;1.30;;
20322;SDS011;10319;52.206;20.996;2024-02-14T11:51:44;6.67;;;1.30;;
20322;SDS011;10319;52.206;20.996;2024-02-14T11:54:09;5.30;;;1.23;;
20322;SDS011;10319;52.206;20.996;2024-02-14T11:56:35;5.73;;;1.30;;
20322;SDS011;10319;52.206;20.996;2024-02-14T11:59:01;4.50;;;1.00;;
20322;SDS011;10319;52.206;20.996;2024-02-14T12:01:33;7.07;;;1.40;;
20322;SDS011;10319;52.206;20.996;2024-02-14T12:03:59;12.63;;;2.10;;
20322;SDS011;10319;52.206;20.996;2024-02-14T12:06:26;8.90;;;1.33;;
20322;SDS011;10319;52.206;20.996;2024-02-14T12:08:51;8.47;;;1.37;;
20322;SDS011;10319;52.206;20.996;2024-02-14T12:11:17;9.03;;;1.47;;
20322;SDS011;10319;52.206;20.996;2024-02-14T12:13:42;5.73;;;1.03;;
20322;SDS011;10319;52.206;20.996;2024-02-14T12:16:08;5.53;;;1.10;;
20322;SDS011;10319;52.206;20.996;2024-02-14T12:18:35;5.97;;;1.10;;
20322;SDS011;10319;52.206;20.996;2024-02-14T12:21:04;4.93;;;1.10;;
20322;SDS011;10319;52.206;20.996;2024-02-14T12:23:32;5.13;;;0.97;;
20322;SDS011;10319;52.206;20.996;2024-02-14T12:26:01;6.63;;;1.30;;
20322;SDS011;10319;52.206;20.996;2024-02-14T12:28:28;4.47;;;0.90;;
20322;SDS011;10319;52.206;20.996;2024-02-14T12:30:54;4.50;;;1.23;;
20322;SDS011;10319;52.206;20.996;2024-02-14T12:33:26;5.13;;;1.20;;
20322;SDS011;10319;52.206;20.996;2024-02-14T12:35:53;4.40;;;1.07;;
20322;SDS011;10319;52.206;20.996;2024-02-14T12:38:20;5.63;;;1.17;;
20322;SDS011;10319;52.206;20.996;2024-02-14T12:40:46;12.80;;;2.20;;
20322;SDS011;10319;52.206;20.996;2024-02-14T12:43:12;5.00;;;1.00;;
20322;SDS011;10319;52.206;20.996;2024-02-14T12:45:38;7.60;;;1.20;;
20322;SDS011;10319;52.206;20.996;2024-02-14T12:48:04;7.30;;;1.30;;
20322;SDS011;10319;52.206;20.996;2024-02-14T12:53:38;12.83;;;2.10;;
20322;SDS011;10319;52.206;20.996;2024-02-14T12:56:04;4.40;;;1.10;;
20322;SDS011;10319;52.206;20.996;2024-02-14T12:58:32;5.63;;;1.23;;
20322;SDS011;10319;52.206;20.996;2024-02-14T13:01:18;7.13;;;1.30;;
20322;SDS011;10319;52.206;20.996;2024-02-14T13:04:29;5.77;;;1.27;;
20322;SDS011;10319;52.206;20.996;2024-02-14T13:07:34;7.40;;;1.40;;
20322;SDS011;10319;52.206;20.996;2024-02-14T13:10:10;5.97;;;1.30;;
20322;SDS011;10319;52.206;20.996;2024-02-14T13:13:11;6.40;;;1.33;;
20322;SDS011;10319;52.206;20.996;2024-02-14T13:15:37;8.30;;;1.50;;
20322;SDS011;10319;52.206;20.996;2024-02-14T13:18:02;4.17;;;0.90;;
20322;SDS011;10319;52.206;20.996;2024-02-14T13:20:29;5.53;;;1.10;;
20322;SDS011;10319;52.206;20.996;2024-02-14T13:23:05;6.43;;;1.47;;
20322;SDS011;10319;52.206;20.996;2024-02-14T13:29:02;5.27;;;1.07;;
20322;SDS011;10319;52.206;20.996;2024-02-14T13:31:35;5.90;;;1.20;;
20322;SDS011;10319;52.206;20.996;2024-02-14T13:34:01;6.47;;;1.30;;
20322;SDS011;10319;52.206;20.996;2024-02-14T13:36:46;6.57;;;1.27;;
20322;SDS011;10319;52.206;20.996;2024-02-14T13:45:43;8.10;;;1.40;;
20322;SDS011;10319;52.206;20.996;2024-02-14T13:48:09;6.70;;;1.13;;
20322;SDS011;10319;52.206;20.996;2024-02-14T13:50:40;4.70;;;0.90;;
20322;SDS011;10319;52.206;20.996;2024-02-14T13:53:13;6.43;;;1.27;;
20322;SDS011;10319;52.206;20.996;2024-02-14T13:55:58;7.67;;;1.30;;
20322;SDS011;10319;52.206;20.996;2024-02-14T13:58:23;6.10;;;1.27;;
20322;SDS011;10319;52.206;20.996;2024-02-14T14:00:50;7.57;;;1.63;;
20322;SDS011;10319;52.206;20.996;2024-02-14T14:03:26;7.87;;;1.40;;
20322;SDS011;10319;52.206;20.996;2024-02-14T14:05:54;5.03;;;1.10;;
20322;SDS011;10319;52.206;20.996;2024-02-14T14:08:23;6.37;;;1.20;;
20322;SDS011;10319;52.206;20.996;2024-02-14T14:10:49;8.83;;;1.50;;
20322;SDS011;10319;52.206;20.996;2024-02-14T14:13:17;5.77;;;1.30;;
20322;SDS011;10319;52.206;20.996;2024-02-14T14:15:48;6.80;;;1.27;;
20322;SDS011;10319;52.206;20.996;2024-02-14T14:18:32;5.03;;;1.27;;
20322;SDS011;10319;52.206;20.996;2024-02-14T14:21:21;6.43;;;1.23;;
20322;SDS011;10319;52.206;20.996;2024-02-14T14:23:51;5.27;;;1.23;;
20322;SDS011;10319;52.206;20.996;2024-02-14T14:32:55;5.60;;;1.30;;
20322;SDS011;10319;52.206;20.996;2024-02-14T14:35:21;5.57;;;1.30;;
20322;SDS011;10319;52.206;20.996;2024-02-14T14:37:47;6.83;;;1.60;;
20322;SDS011;10319;52.206;20.996;2024-02-14T14:40:13;9.03;;;1.60;;
20322;SDS011;10319;52.206;20.996;2024-02-14T14:42:40;9.70;;;1.90;;
20322;SDS011;10319;52.206;20.996;2024-02-14T14:45:21;6.37;;;1.30;;
20322;SDS011;10319;52.206;20.996;2024-02-14T14:47:47;7.50;;;1.40;;
20322;SDS011;10319;52.206;20.996;2024-02-14T14:50:14;5.07;;;1.17;;
20322;SDS011;10319;52.206;20.996;2024-02-14T14:52:41;5.87;;;1.10;;